sensor_id;sensor_type;location;lat;lon;timestamp;P1;durP1;ratioP1;P2;durP2;ratioP2
43801;SDS011;29429;51.074;13.764;2023-01-04T00:01:19;3.00;;;2.13;;
43801;SDS011;29429;51.074;13.764;2023-01-04T00:03:48;4.32;;;2.50;;
43801;SDS011;29429;51.074;13.764;2023-01-04T00:06:15;5.30;;;2.17;;
43801;SDS011;29429;51.074;13.764;2023-01-04T00:08:43;3.20;;;2.10;;
43801;SDS011;29429;51.074;13.764;2023-01-04T00:11:11;3.03;;;1.83;;
43801;SDS011;29429;51.074;13.764;2023-01-04T00:13:43;3.70;;;2.15;;
43801;SDS011;29429;51.074;13.764;2023-01-04T00:16:12;4.95;;;2.28;;
43801;SDS011;29429;51.074;13.764;2023-01-04T00:18:43;5.72;;;2.67;;
43801;SDS011;29429;51.074;13.764;2023-01-04T00:21:18;5.20;;;2.25;;
43801;SDS011;29429;51.074;13.764;2023-01-04T00:23:51;3.78;;;2.10;;
43801;SDS011;29429;51.074;13.764;2023-01-04T00:26:22;6.32;;;2.35;;
43801;SDS011;29429;51.074;13.764;2023-01-04T00:28:56;4.95;;;2.35;;
43801;SDS011;29429;51.074;13.764;2023-01-04T00:31:29;3.92;;;1.95;;
43801;SDS011;29429;51.074;13.764;2023-01-04T00:33:58;5.18;;;2.33;;
43801;SDS011;29429;51.074;13.764;2023-01-04T00:36:28;4.40;;;2.40;;
43801;SDS011;29429;51.074;13.764;2023-01-04T00:38:56;4.38;;;2.00;;
43801;SDS011;29429;51.074;13.764;2023-01-04T00:41:39;4.70;;;2.05;;
43801;SDS011;29429;51.074;13.764;2023-01-04T00:44:27;4.30;;;1.95;;
43801;SDS011;29429;51.074;13.764;2023-01-04T00:46:55;5.63;;;2.80;;
43801;SDS011;29429;51.074;13.764;2023-01-04T00:49:22;4.85;;;2.22;;
43801;SDS011;29429;51.074;13.764;2023-01-04T00:51:49;3.97;;;2.10;;
43801;SDS011;29429;51.074;13.764;2023-01-04T00:54:16;3.13;;;1.92;;
43801;SDS011;29429;51.074;13.764;2023-01-04T00:56:45;5.28;;;2.15;;
43801;SDS011;29429;51.074;13.764;2023-01-04T00:59:13;4.82;;;2.08;;
43801;SDS011;29429;51.074;13.764;2023-01-04T01:01:45;3.25;;;2.20;;
43801;SDS011;29429;51.074;13.764;2023-01-04T01:04:13;4.15;;;1.80;;
43801;SDS011;29429;51.074;13.764;2023-01-04T01:06:43;4.18;;;1.90;;
43801;SDS011;29429;51.074;13.764;2023-01-04T01:09:10;3.00;;;1.92;;
43801;SDS011;29429;51.074;13.764;2023-01-04T01:11:38;6.90;;;2.17;;
43801;SDS011;29429;51.074;13.764;2023-01-04T01:14:06;6.82;;;1.92;;
43801;SDS011;29429;51.074;13.764;2023-01-04T01:16:38;5.60;;;1.80;;
43801;SDS011;29429;51.074;13.764;2023-01-04T01:19:25;4.60;;;2.20;;
43801;SDS011;29429;51.074;13.764;2023-01-04T01:21:54;4.20;;;1.92;;
43801;SDS011;29429;51.074;13.764;2023-01-04T01:24:23;5.80;;;2.22;;
43801;SDS011;29429;51.074;13.764;2023-01-04T01:26:51;4.93;;;2.10;;
43801;SDS011;29429;51.074;13.764;2023-01-04T01:29:18;4.57;;;1.90;;
43801;SDS011;29429;51.074;13.764;2023-01-04T01:31:45;6.05;;;2.10;;
43801;SDS011;29429;51.074;13.764;2023-01-04T01:34:12;3.28;;;1.73;;
43801;SDS011;29429;51.074;13.764;2023-01-04T01:36:39;3.45;;;2.00;;
43801;SDS011;29429;51.074;13.764;2023-01-04T01:39:06;6.70;;;2.30;;
43801;SDS011;29429;51.074;13.764;2023-01-04T01:41:33;3.70;;;2.10;;
43801;SDS011;29429;51.074;13.764;2023-01-04T01:44:05;3.22;;;1.80;;
43801;SDS011;29429;51.074;13.764;2023-01-04T01:46:40;7.88;;;2.20;;
43801;SDS011;29429;51.074;13.764;2023-01-04T01:49:22;3.33;;;2.00;;
43801;SDS011;29429;51.074;13.764;2023-01-04T01:51:58;3.70;;;1.65;;
43801;SDS011;29429;51.074;13.764;2023-01-04T01:54:30;4.65;;;2.00;;
43801;SDS011;29429;51.074;13.764;2023-01-04T01:57:05;4.60;;;1.90;;
43801;SDS011;29429;51.074;13.764;2023-01-04T01:59:37;3.58;;;1.73;;
43801;SDS011;29429;51.074;13.764;2023-01-04T02:02:09;4.60;;;2.15;;
43801;SDS011;29429;51.074;13.764;2023-01-04T02:04:37;4.07;;;2.30;;
43801;SDS011;29429;51.074;13.764;2023-01-04T02:07:12;2.80;;;1.58;;
43801;SDS011;29429;51.074;13.764;2023-01-04T02:09:46;3.05;;;1.75;;
43801;SDS011;29429;51.074;13.764;2023-01-04T02:12:15;3.22;;;1.60;;
43801;SDS011;29429;51.074;13.764;2023-01-04T02:14:43;3.28;;;1.92;;
43801;SDS011;29429;51.074;13.764;2023-01-04T02:17:22;4.07;;;2.20;;
43801;SDS011;29429;51.074;13.764;2023-01-04T02:26:39;5.55;;;2.22;;
43801;SDS011;29429;51.074;13.764;2023-01-04T02:31:50;5.85;;;2.17;;
43801;SDS011;29429;51.074;13.764;2023-01-04T02:46:32;5.15;;;2.05;;
43801;SDS011;29429;51.074;13.764;2023-01-04T02:49:06;7.97;;;2.05;;
43801;SDS011;29429;51.074;13.764;2023-01-04T02:51:51;4.28;;;2.80;;
43801;SDS011;29429;51.074;13.764;2023-01-04T02:54:21;2.60;;;2.05;;
43801;SDS011;29429;51.074;13.764;2023-01-04T03:09:12;5.18;;;2.13;;
43801;SDS011;29429;51.074;13.764;2023-01-04T03:11:55;2.92;;;1.70;;
43801;SDS011;29429;51.074;13.764;2023-01-04T03:14:50;4.85;;;1.90;;
43801;SDS011;29429;51.074;13.764;2023-01-04T03:17:26;4.97;;;1.88;;
43801;SDS011;29429;51.074;13.764;2023-01-04T03:20:10;5.73;;;1.93;;
43801;SDS011;29429;51.074;13.764;2023-01-04T03:22:44;4.45;;;2.33;;
43801;SDS011;29429;51.074;13.764;2023-01-04T03:28:29;4.60;;;2.30;;
43801;SDS011;29429;51.074;13.764;2023-01-04T03:34:14;2.97;;;2.28;;
43801;SDS011;29429;51.074;13.764;2023-01-04T03:42:55;4.32;;;3.33;;
43801;SDS011;29429;51.074;13.764;2023-01-04T03:45:57;9.27;;;4.13;;
43801;SDS011;29429;51.074;13.764;2023-01-04T03:48:55;8.85;;;4.55;;
43801;SDS011;29429;51.074;13.764;2023-01-04T03:51:54;7.53;;;4.57;;
43801;SDS011;29429;51.074;13.764;2023-01-04T03:54:32;7.93;;;5.28;;
43801;SDS011;29429;51.074;13.764;2023-01-04T03:57:05;9.35;;;6.28;;
43801;SDS011;29429;51.074;13.764;2023-01-04T03:59:56;10.70;;;6.28;;
43801;SDS011;29429;51.074;13.764;2023-01-04T04:02:30;12.18;;;7.28;;
43801;SDS011;29429;51.074;13.764;2023-01-04T04:05:00;11.13;;;7.70;;
43801;SDS011;29429;51.074;13.764;2023-01-04T04:07:47;10.50;;;7.63;;
43801;SDS011;29429;51.074;13.764;2023-01-04T04:10:32;14.82;;;7.75;;
43801;SDS011;29429;51.074;13.764;2023-01-04T04:12:59;9.85;;;6.75;;
43801;SDS011;29429;51.074;13.764;2023-01-04T04:15:26;13.15;;;7.38;;
43801;SDS011;29429;51.074;13.764;2023-01-04T04:17:53;13.52;;;8.13;;
43801;SDS011;29429;51.074;13.764;2023-01-04T04:20:20;10.13;;;7.32;;
43801;SDS011;29429;51.074;13.764;2023-01-04T04:22:47;13.95;;;8.32;;
43801;SDS011;29429;51.074;13.764;2023-01-04T04:25:14;13.50;;;7.97;;
43801;SDS011;29429;51.074;13.764;2023-01-04T04:27:41;14.98;;;8.05;;
43801;SDS011;29429;51.074;13.764;2023-01-04T04:30:08;13.85;;;8.77;;
43801;SDS011;29429;51.074;13.764;2023-01-04T04:32:35;14.02;;;9.20;;
43801;SDS011;29429;51.074;13.764;2023-01-04T04:35:02;11.80;;;8.75;;
43801;SDS011;29429;51.074;13.764;2023-01-04T04:37:29;11.32;;;7.63;;
43801;SDS011;29429;51.074;13.764;2023-01-04T04:39:57;13.48;;;8.18;;
43801;SDS011;29429;51.074;13.764;2023-01-04T04:42:24;12.93;;;7.63;;
43801;SDS011;29429;51.074;13.764;2023-01-04T04:44:51;11.05;;;7.95;;
43801;SDS011;29429;51.074;13.764;2023-01-04T04:47:18;15.32;;;8.48;;
43801;SDS011;29429;51.074;13.764;2023-01-04T04:49:45;14.10;;;7.72;;
43801;SDS011;29429;51.074;13.764;2023-01-04T04:52:12;14.27;;;8.75;;
43801;SDS011;29429;51.074;13.764;2023-01-04T04:54:39;13.75;;;8.00;;
43801;SDS011;29429;51.074;13.764;2023-01-04T04:57:06;11.88;;;7.82;;
43801;SDS011;29429;51.074;13.764;2023-01-04T04:59:33;11.02;;;7.53;;
43801;SDS011;29429;51.074;13.764;2023-01-04T05:02:01;12.02;;;7.53;;
43801;SDS011;29429;51.074;13.764;2023-01-04T05:04:28;13.00;;;7.85;;
43801;SDS011;29429;51.074;13.764;2023-01-04T05:06:55;9.75;;;7.50;;
43801;SDS011;29429;51.074;13.764;2023-01-04T05:09:22;9.73;;;7.28;;
43801;SDS011;29429;51.074;13.764;2023-01-04T05:11:49;10.15;;;6.75;;
43801;SDS011;29429;51.074;13.764;2023-01-04T05:14:34;13.20;;;7.78;;
43801;SDS011;29429;51.074;13.764;2023-01-04T05:17:01;12.50;;;7.55;;
43801;SDS011;29429;51.074;13.764;2023-01-04T05:19:29;11.68;;;8.38;;
43801;SDS011;29429;51.074;13.764;2023-01-04T05:21:56;16.27;;;8.75;;
43801;SDS011;29429;51.074;13.764;2023-01-04T05:24:23;11.60;;;7.40;;
43801;SDS011;29429;51.074;13.764;2023-01-04T05:26:50;10.82;;;6.78;;
43801;SDS011;29429;51.074;13.764;2023-01-04T05:29:16;12.00;;;7.80;;
43801;SDS011;29429;51.074;13.764;2023-01-04T05:32:02;13.00;;;7.38;;
43801;SDS011;29429;51.074;13.764;2023-01-04T05:34:29;12.68;;;7.50;;
43801;SDS011;29429;51.074;13.764;2023-01-04T05:36:56;9.05;;;7.43;;
43801;SDS011;29429;51.074;13.764;2023-01-04T05:39:23;9.85;;;6.68;;
43801;SDS011;29429;51.074;13.764;2023-01-04T05:41:50;13.10;;;8.07;;
43801;SDS011;29429;51.074;13.764;2023-01-04T05:44:35;9.60;;;6.93;;
43801;SDS011;29429;51.074;13.764;2023-01-04T05:47:02;11.02;;;7.00;;
43801;SDS011;29429;51.074;13.764;2023-01-04T05:49:33;10.23;;;6.50;;
43801;SDS011;29429;51.074;13.764;2023-01-04T05:52:00;10.13;;;6.63;;
43801;SDS011;29429;51.074;13.764;2023-01-04T05:54:27;11.63;;;7.18;;
43801;SDS011;29429;51.074;13.764;2023-01-04T05:56:54;12.60;;;7.25;;
43801;SDS011;29429;51.074;13.764;2023-01-04T05:59:21;10.27;;;6.80;;
43801;SDS011;29429;51.074;13.764;2023-01-04T06:01:48;12.35;;;7.22;;
43801;SDS011;29429;51.074;13.764;2023-01-04T06:04:15;8.70;;;6.57;;
43801;SDS011;29429;51.074;13.764;2023-01-04T06:06:42;10.50;;;6.82;;
43801;SDS011;29429;51.074;13.764;2023-01-04T06:09:09;9.57;;;6.50;;
43801;SDS011;29429;51.074;13.764;2023-01-04T06:11:36;12.60;;;7.47;;
43801;SDS011;29429;51.074;13.764;2023-01-04T06:14:03;8.80;;;6.05;;
43801;SDS011;29429;51.074;13.764;2023-01-04T06:16:31;8.85;;;6.35;;
43801;SDS011;29429;51.074;13.764;2023-01-04T06:18:58;8.35;;;5.97;;
43801;SDS011;29429;51.074;13.764;2023-01-04T06:21:25;9.93;;;5.75;;
43801;SDS011;29429;51.074;13.764;2023-01-04T06:23:52;12.73;;;6.25;;
43801;SDS011;29429;51.074;13.764;2023-01-04T06:26:19;9.93;;;5.45;;
43801;SDS011;29429;51.074;13.764;2023-01-04T06:28:46;8.10;;;5.70;;
43801;SDS011;29429;51.074;13.764;2023-01-04T06:31:13;9.35;;;6.13;;
43801;SDS011;29429;51.074;13.764;2023-01-04T06:33:41;10.10;;;6.05;;
43801;SDS011;29429;51.074;13.764;2023-01-04T06:36:08;8.45;;;5.30;;
43801;SDS011;29429;51.074;13.764;2023-01-04T06:38:45;12.85;;;6.88;;
43801;SDS011;29429;51.074;13.764;2023-01-04T06:41:14;9.57;;;6.25;;
43801;SDS011;29429;51.074;13.764;2023-01-04T06:43:41;9.10;;;6.30;;
43801;SDS011;29429;51.074;13.764;2023-01-04T06:46:08;9.57;;;6.82;;
43801;SDS011;29429;51.074;13.764;2023-01-04T06:48:35;9.65;;;6.20;;
43801;SDS011;29429;51.074;13.764;2023-01-04T06:51:02;9.82;;;7.32;;
43801;SDS011;29429;51.074;13.764;2023-01-04T06:53:30;13.80;;;6.80;;
43801;SDS011;29429;51.074;13.764;2023-01-04T06:55:57;11.85;;;6.82;;
43801;SDS011;29429;51.074;13.764;2023-01-04T06:58:24;10.77;;;6.75;;
43801;SDS011;29429;51.074;13.764;2023-01-04T07:00:51;12.02;;;7.30;;
43801;SDS011;29429;51.074;13.764;2023-01-04T07:03:20;11.68;;;7.35;;
43801;SDS011;29429;51.074;13.764;2023-01-04T07:05:47;12.40;;;7.82;;
43801;SDS011;29429;51.074;13.764;2023-01-04T07:08:14;12.90;;;7.32;;
43801;SDS011;29429;51.074;13.764;2023-01-04T07:10:42;12.43;;;7.97;;
43801;SDS011;29429;51.074;13.764;2023-01-04T07:13:09;11.40;;;7.38;;
43801;SDS011;29429;51.074;13.764;2023-01-04T07:15:36;12.50;;;7.40;;
43801;SDS011;29429;51.074;13.764;2023-01-04T07:18:07;10.52;;;7.25;;
43801;SDS011;29429;51.074;13.764;2023-01-04T07:20:35;10.95;;;6.28;;
43801;SDS011;29429;51.074;13.764;2023-01-04T07:23:04;10.30;;;6.75;;
43801;SDS011;29429;51.074;13.764;2023-01-04T07:25:32;13.45;;;6.63;;
43801;SDS011;29429;51.074;13.764;2023-01-04T07:27:59;10.10;;;6.70;;
43801;SDS011;29429;51.074;13.764;2023-01-04T07:30:27;8.88;;;6.30;;
43801;SDS011;29429;51.074;13.764;2023-01-04T07:32:54;11.02;;;6.60;;
43801;SDS011;29429;51.074;13.764;2023-01-04T07:35:22;9.25;;;6.00;;
43801;SDS011;29429;51.074;13.764;2023-01-04T07:37:50;8.82;;;5.90;;
43801;SDS011;29429;51.074;13.764;2023-01-04T07:40:24;8.02;;;5.60;;
43801;SDS011;29429;51.074;13.764;2023-01-04T07:42:53;8.38;;;5.80;;
43801;SDS011;29429;51.074;13.764;2023-01-04T07:45:24;7.55;;;4.78;;
43801;SDS011;29429;51.074;13.764;2023-01-04T07:47:52;9.85;;;5.35;;
43801;SDS011;29429;51.074;13.764;2023-01-04T07:50:19;6.65;;;4.57;;
43801;SDS011;29429;51.074;13.764;2023-01-04T07:52:46;6.75;;;4.30;;
43801;SDS011;29429;51.074;13.764;2023-01-04T07:55:13;6.03;;;4.40;;
43801;SDS011;29429;51.074;13.764;2023-01-04T07:57:40;6.82;;;4.43;;
43801;SDS011;29429;51.074;13.764;2023-01-04T08:00:07;6.57;;;4.45;;
43801;SDS011;29429;51.074;13.764;2023-01-04T08:02:37;5.32;;;3.88;;
43801;SDS011;29429;51.074;13.764;2023-01-04T08:05:05;7.70;;;3.70;;
43801;SDS011;29429;51.074;13.764;2023-01-04T08:07:32;6.63;;;4.00;;
43801;SDS011;29429;51.074;13.764;2023-01-04T08:09:59;6.47;;;3.38;;
43801;SDS011;29429;51.074;13.764;2023-01-04T08:12:26;7.60;;;3.80;;
43801;SDS011;29429;51.074;13.764;2023-01-04T08:14:53;6.38;;;3.95;;
43801;SDS011;29429;51.074;13.764;2023-01-04T08:17:20;5.95;;;3.70;;
43801;SDS011;29429;51.074;13.764;2023-01-04T08:19:47;4.45;;;3.33;;
43801;SDS011;29429;51.074;13.764;2023-01-04T08:22:14;7.65;;;3.97;;
43801;SDS011;29429;51.074;13.764;2023-01-04T08:24:41;9.60;;;4.25;;
43801;SDS011;29429;51.074;13.764;2023-01-04T08:27:08;7.22;;;4.38;;
43801;SDS011;29429;51.074;13.764;2023-01-04T08:29:36;5.22;;;3.75;;
43801;SDS011;29429;51.074;13.764;2023-01-04T08:32:03;7.32;;;3.92;;
43801;SDS011;29429;51.074;13.764;2023-01-04T08:34:31;5.85;;;3.45;;
43801;SDS011;29429;51.074;13.764;2023-01-04T08:36:58;4.05;;;3.00;;
43801;SDS011;29429;51.074;13.764;2023-01-04T08:39:25;4.75;;;2.83;;
43801;SDS011;29429;51.074;13.764;2023-01-04T08:41:54;7.03;;;3.15;;
43801;SDS011;29429;51.074;13.764;2023-01-04T08:44:28;4.30;;;3.20;;
43801;SDS011;29429;51.074;13.764;2023-01-04T08:46:55;5.13;;;3.35;;
43801;SDS011;29429;51.074;13.764;2023-01-04T08:49:24;5.15;;;2.72;;
43801;SDS011;29429;51.074;13.764;2023-01-04T08:51:51;4.40;;;2.90;;
43801;SDS011;29429;51.074;13.764;2023-01-04T08:54:18;4.07;;;2.92;;
43801;SDS011;29429;51.074;13.764;2023-01-04T08:56:45;4.35;;;2.67;;
43801;SDS011;29429;51.074;13.764;2023-01-04T08:59:12;3.92;;;3.33;;
43801;SDS011;29429;51.074;13.764;2023-01-04T09:01:40;4.00;;;3.15;;
43801;SDS011;29429;51.074;13.764;2023-01-04T09:04:07;5.57;;;3.00;;
43801;SDS011;29429;51.074;13.764;2023-01-04T09:06:36;4.78;;;2.70;;
43801;SDS011;29429;51.074;13.764;2023-01-04T09:09:03;5.80;;;2.90;;
43801;SDS011;29429;51.074;13.764;2023-01-04T09:11:31;6.15;;;3.55;;
43801;SDS011;29429;51.074;13.764;2023-01-04T09:13:59;4.78;;;3.00;;
43801;SDS011;29429;51.074;13.764;2023-01-04T09:16:38;5.32;;;3.00;;
43801;SDS011;29429;51.074;13.764;2023-01-04T09:19:05;4.75;;;2.88;;
43801;SDS011;29429;51.074;13.764;2023-01-04T09:21:33;4.57;;;3.08;;
43801;SDS011;29429;51.074;13.764;2023-01-04T09:24:01;4.50;;;3.03;;
43801;SDS011;29429;51.074;13.764;2023-01-04T09:26:28;3.00;;;2.47;;
43801;SDS011;29429;51.074;13.764;2023-01-04T09:28:55;5.00;;;3.17;;
43801;SDS011;29429;51.074;13.764;2023-01-04T09:31:24;4.05;;;2.65;;
43801;SDS011;29429;51.074;13.764;2023-01-04T09:33:54;3.88;;;2.50;;
43801;SDS011;29429;51.074;13.764;2023-01-04T09:36:41;4.15;;;2.22;;
43801;SDS011;29429;51.074;13.764;2023-01-04T09:39:11;3.95;;;2.38;;
43801;SDS011;29429;51.074;13.764;2023-01-04T09:41:48;3.97;;;2.50;;
43801;SDS011;29429;51.074;13.764;2023-01-04T09:47:22;1.90;;;1.13;;
43801;SDS011;29429;51.074;13.764;2023-01-04T09:50:17;3.40;;;1.90;;
43801;SDS011;29429;51.074;13.764;2023-01-04T09:53:23;3.83;;;2.13;;
43801;SDS011;29429;51.074;13.764;2023-01-04T09:56:01;2.70;;;1.42;;
43801;SDS011;29429;51.074;13.764;2023-01-04T09:58:39;3.22;;;1.92;;
43801;SDS011;29429;51.074;13.764;2023-01-04T10:01:15;2.47;;;1.30;;
43801;SDS011;29429;51.074;13.764;2023-01-04T10:06:50;2.55;;;1.60;;
43801;SDS011;29429;51.074;13.764;2023-01-04T10:09:18;3.95;;;1.50;;
43801;SDS011;29429;51.074;13.764;2023-01-04T10:14:37;2.20;;;1.27;;
43801;SDS011;29429;51.074;13.764;2023-01-04T10:17:09;2.55;;;1.00;;
43801;SDS011;29429;51.074;13.764;2023-01-04T10:23:44;2.22;;;1.35;;
43801;SDS011;29429;51.074;13.764;2023-01-04T10:27:04;1.95;;;0.70;;
43801;SDS011;29429;51.074;13.764;2023-01-04T10:30:02;3.58;;;1.17;;
43801;SDS011;29429;51.074;13.764;2023-01-04T10:32:49;1.02;;;0.57;;
43801;SDS011;29429;51.074;13.764;2023-01-04T10:35:38;0.95;;;0.70;;
43801;SDS011;29429;51.074;13.764;2023-01-04T10:38:11;2.70;;;0.82;;
43801;SDS011;29429;51.074;13.764;2023-01-04T10:40:49;2.10;;;0.82;;
43801;SDS011;29429;51.074;13.764;2023-01-04T10:43:24;1.88;;;0.63;;
43801;SDS011;29429;51.074;13.764;2023-01-04T10:46:42;2.70;;;1.00;;
43801;SDS011;29429;51.074;13.764;2023-01-04T10:49:27;3.75;;;0.80;;
43801;SDS011;29429;51.074;13.764;2023-01-04T10:52:17;1.02;;;0.70;;
43801;SDS011;29429;51.074;13.764;2023-01-04T10:57:35;1.52;;;0.52;;
43801;SDS011;29429;51.074;13.764;2023-01-04T11:03:09;1.52;;;0.77;;
43801;SDS011;29429;51.074;13.764;2023-01-04T11:08:42;2.35;;;0.60;;
43801;SDS011;29429;51.074;13.764;2023-01-04T11:11:23;2.05;;;0.63;;
43801;SDS011;29429;51.074;13.764;2023-01-04T11:13:57;0.68;;;0.68;;
43801;SDS011;29429;51.074;13.764;2023-01-04T11:16:26;0.80;;;0.40;;
43801;SDS011;29429;51.074;13.764;2023-01-04T11:18:56;2.58;;;0.82;;
43801;SDS011;29429;51.074;13.764;2023-01-04T11:21:27;2.35;;;0.85;;
43801;SDS011;29429;51.074;13.764;2023-01-04T11:24:02;2.00;;;0.63;;
43801;SDS011;29429;51.074;13.764;2023-01-04T11:26:53;1.17;;;0.70;;
43801;SDS011;29429;51.074;13.764;2023-01-04T11:32:31;1.80;;;0.80;;
43801;SDS011;29429;51.074;13.764;2023-01-04T11:35:00;2.67;;;0.60;;
43801;SDS011;29429;51.074;13.764;2023-01-04T11:37:31;1.70;;;0.93;;
43801;SDS011;29429;51.074;13.764;2023-01-04T11:40:09;1.10;;;0.70;;
43801;SDS011;29429;51.074;13.764;2023-01-04T11:43:28;1.95;;;1.02;;
43801;SDS011;29429;51.074;13.764;2023-01-04T11:49:01;1.75;;;0.90;;
43801;SDS011;29429;51.074;13.764;2023-01-04T11:54:16;2.15;;;1.13;;
43801;SDS011;29429;51.074;13.764;2023-01-04T11:59:28;1.77;;;1.00;;
43801;SDS011;29429;51.074;13.764;2023-01-04T12:05:14;2.47;;;0.82;;
43801;SDS011;29429;51.074;13.764;2023-01-04T12:07:55;2.28;;;0.82;;
43801;SDS011;29429;51.074;13.764;2023-01-04T12:10:24;1.92;;;0.80;;
43801;SDS011;29429;51.074;13.764;2023-01-04T12:12:54;2.22;;;1.00;;
43801;SDS011;29429;51.074;13.764;2023-01-04T12:15:33;2.75;;;1.42;;
43801;SDS011;29429;51.074;13.764;2023-01-04T12:18:29;3.72;;;1.85;;
43801;SDS011;29429;51.074;13.764;2023-01-04T12:21:05;3.72;;;1.30;;
43801;SDS011;29429;51.074;13.764;2023-01-04T12:23:32;3.03;;;1.02;;
43801;SDS011;29429;51.074;13.764;2023-01-04T12:25:59;2.47;;;1.08;;
43801;SDS011;29429;51.074;13.764;2023-01-04T12:28:34;3.85;;;1.10;;
43801;SDS011;29429;51.074;13.764;2023-01-04T12:33:49;3.33;;;1.20;;
43801;SDS011;29429;51.074;13.764;2023-01-04T12:36:18;2.95;;;1.00;;
43801;SDS011;29429;51.074;13.764;2023-01-04T12:47:37;2.80;;;1.20;;
43801;SDS011;29429;51.074;13.764;2023-01-04T13:01:22;2.38;;;1.40;;
43801;SDS011;29429;51.074;13.764;2023-01-04T13:03:59;2.38;;;0.80;;
43801;SDS011;29429;51.074;13.764;2023-01-04T13:06:54;2.45;;;0.90;;
43801;SDS011;29429;51.074;13.764;2023-01-04T13:09:38;3.45;;;1.10;;
43801;SDS011;29429;51.074;13.764;2023-01-04T13:12:35;1.95;;;1.38;;
43801;SDS011;29429;51.074;13.764;2023-01-04T13:18:53;2.15;;;1.45;;
43801;SDS011;29429;51.074;13.764;2023-01-04T13:24:00;1.27;;;0.90;;
43801;SDS011;29429;51.074;13.764;2023-01-04T13:32:00;2.25;;;0.88;;
43801;SDS011;29429;51.074;13.764;2023-01-04T13:34:46;1.65;;;1.02;;
43801;SDS011;29429;51.074;13.764;2023-01-04T13:37:27;1.17;;;0.77;;
43801;SDS011;29429;51.074;13.764;2023-01-04T13:48:36;3.22;;;2.10;;
43801;SDS011;29429;51.074;13.764;2023-01-04T13:51:23;3.20;;;1.60;;
43801;SDS011;29429;51.074;13.764;2023-01-04T13:54:04;1.70;;;1.23;;
43801;SDS011;29429;51.074;13.764;2023-01-04T13:56:42;1.88;;;0.70;;
43801;SDS011;29429;51.074;13.764;2023-01-04T13:59:16;1.55;;;0.60;;
43801;SDS011;29429;51.074;13.764;2023-01-04T14:01:46;1.95;;;0.80;;
43801;SDS011;29429;51.074;13.764;2023-01-04T14:06:59;1.15;;;0.80;;
43801;SDS011;29429;51.074;13.764;2023-01-04T14:09:27;1.80;;;0.70;;
43801;SDS011;29429;51.074;13.764;2023-01-04T14:12:06;0.88;;;0.57;;
43801;SDS011;29429;51.074;13.764;2023-01-04T14:14:47;0.82;;;0.45;;
43801;SDS011;29429;51.074;13.764;2023-01-04T14:38:39;1.15;;;0.85;;
43801;SDS011;29429;51.074;13.764;2023-01-04T14:43:49;0.38;;;0.30;;
43801;SDS011;29429;51.074;13.764;2023-01-04T14:46:28;1.75;;;0.60;;
43801;SDS011;29429;51.074;13.764;2023-01-04T14:48:57;1.10;;;0.70;;
43801;SDS011;29429;51.074;13.764;2023-01-04T14:54:12;0.90;;;0.70;;
43801;SDS011;29429;51.074;13.764;2023-01-04T14:56:49;2.65;;;0.90;;
43801;SDS011;29429;51.074;13.764;2023-01-04T14:59:17;2.15;;;1.23;;
43801;SDS011;29429;51.074;13.764;2023-01-04T15:01:44;2.90;;;1.10;;
43801;SDS011;29429;51.074;13.764;2023-01-04T15:04:11;1.80;;;0.80;;
43801;SDS011;29429;51.074;13.764;2023-01-04T15:06:45;1.77;;;0.50;;
43801;SDS011;29429;51.074;13.764;2023-01-04T15:09:25;4.18;;;1.92;;
43801;SDS011;29429;51.074;13.764;2023-01-04T15:11:54;1.73;;;0.80;;
43801;SDS011;29429;51.074;13.764;2023-01-04T15:14:22;2.00;;;0.90;;
43801;SDS011;29429;51.074;13.764;2023-01-04T15:16:49;1.48;;;0.75;;
43801;SDS011;29429;51.074;13.764;2023-01-04T15:19:16;3.65;;;1.05;;
43801;SDS011;29429;51.074;13.764;2023-01-04T15:21:43;2.85;;;1.15;;
43801;SDS011;29429;51.074;13.764;2023-01-04T15:24:10;3.15;;;1.05;;
43801;SDS011;29429;51.074;13.764;2023-01-04T15:26:37;1.63;;;0.88;;
43801;SDS011;29429;51.074;13.764;2023-01-04T15:29:05;2.00;;;0.70;;
43801;SDS011;29429;51.074;13.764;2023-01-04T15:31:34;2.38;;;0.80;;
43801;SDS011;29429;51.074;13.764;2023-01-04T15:34:06;2.47;;;0.90;;
43801;SDS011;29429;51.074;13.764;2023-01-04T15:36:35;4.45;;;1.40;;
43801;SDS011;29429;51.074;13.764;2023-01-04T15:39:04;1.83;;;0.70;;
43801;SDS011;29429;51.074;13.764;2023-01-04T15:41:32;2.28;;;0.50;;
43801;SDS011;29429;51.074;13.764;2023-01-04T15:44:18;1.05;;;0.75;;
43801;SDS011;29429;51.074;13.764;2023-01-04T15:46:44;2.17;;;1.10;;
43801;SDS011;29429;51.074;13.764;2023-01-04T15:49:12;2.60;;;1.25;;
43801;SDS011;29429;51.074;13.764;2023-01-04T15:51:43;1.08;;;0.80;;
43801;SDS011;29429;51.074;13.764;2023-01-04T15:54:10;2.58;;;1.00;;
43801;SDS011;29429;51.074;13.764;2023-01-04T15:56:38;2.70;;;1.58;;
43801;SDS011;29429;51.074;13.764;2023-01-04T15:59:05;3.22;;;1.33;;
43801;SDS011;29429;51.074;13.764;2023-01-04T16:01:31;3.40;;;1.35;;
43801;SDS011;29429;51.074;13.764;2023-01-04T16:03:58;4.03;;;1.00;;
43801;SDS011;29429;51.074;13.764;2023-01-04T16:06:25;15.40;;;8.73;;
43801;SDS011;29429;51.074;13.764;2023-01-04T16:08:52;3.33;;;1.73;;
43801;SDS011;29429;51.074;13.764;2023-01-04T16:11:20;4.35;;;2.88;;
43801;SDS011;29429;51.074;13.764;2023-01-04T16:13:49;1.52;;;1.10;;
43801;SDS011;29429;51.074;13.764;2023-01-04T16:16:19;1.98;;;1.27;;
43801;SDS011;29429;51.074;13.764;2023-01-04T16:18:49;2.25;;;1.00;;
43801;SDS011;29429;51.074;13.764;2023-01-04T16:21:19;4.05;;;1.20;;
43801;SDS011;29429;51.074;13.764;2023-01-04T16:23:51;1.75;;;0.95;;
43801;SDS011;29429;51.074;13.764;2023-01-04T16:26:30;1.40;;;0.75;;
43801;SDS011;29429;51.074;13.764;2023-01-04T16:28:57;3.95;;;1.95;;
43801;SDS011;29429;51.074;13.764;2023-01-04T16:31:26;3.08;;;1.30;;
43801;SDS011;29429;51.074;13.764;2023-01-04T16:34:02;2.85;;;1.42;;
43801;SDS011;29429;51.074;13.764;2023-01-04T16:36:29;3.70;;;1.23;;
43801;SDS011;29429;51.074;13.764;2023-01-04T16:38:56;2.17;;;0.80;;
43801;SDS011;29429;51.074;13.764;2023-01-04T16:41:23;1.63;;;0.90;;
43801;SDS011;29429;51.074;13.764;2023-01-04T16:43:52;1.77;;;1.05;;
43801;SDS011;29429;51.074;13.764;2023-01-04T16:46:22;1.13;;;0.50;;
43801;SDS011;29429;51.074;13.764;2023-01-04T16:49:00;2.58;;;1.70;;
43801;SDS011;29429;51.074;13.764;2023-01-04T16:51:31;1.17;;;0.68;;
43801;SDS011;29429;51.074;13.764;2023-01-04T16:54:00;2.00;;;1.10;;
43801;SDS011;29429;51.074;13.764;2023-01-04T16:56:31;1.52;;;0.80;;
43801;SDS011;29429;51.074;13.764;2023-01-04T16:58:59;2.67;;;1.80;;
43801;SDS011;29429;51.074;13.764;2023-01-04T17:01:28;1.80;;;0.90;;
43801;SDS011;29429;51.074;13.764;2023-01-04T17:03:58;1.55;;;1.10;;
43801;SDS011;29429;51.074;13.764;2023-01-04T17:06:29;1.73;;;0.88;;
43801;SDS011;29429;51.074;13.764;2023-01-04T17:08:58;1.25;;;0.90;;
43801;SDS011;29429;51.074;13.764;2023-01-04T17:11:29;1.17;;;0.88;;
43801;SDS011;29429;51.074;13.764;2023-01-04T17:14:18;1.20;;;0.60;;
43801;SDS011;29429;51.074;13.764;2023-01-04T17:16:45;1.40;;;0.73;;
43801;SDS011;29429;51.074;13.764;2023-01-04T17:19:13;0.50;;;0.40;;
43801;SDS011;29429;51.074;13.764;2023-01-04T17:21:40;0.85;;;0.50;;
43801;SDS011;29429;51.074;13.764;2023-01-04T17:24:07;1.20;;;0.60;;
43801;SDS011;29429;51.074;13.764;2023-01-04T17:26:35;1.42;;;0.55;;
43801;SDS011;29429;51.074;13.764;2023-01-04T17:29:03;0.85;;;0.60;;
43801;SDS011;29429;51.074;13.764;2023-01-04T17:31:31;1.10;;;0.80;;
43801;SDS011;29429;51.074;13.764;2023-01-04T17:34:02;2.25;;;0.88;;